sensor_id;sensor_type;location;lat;lon;timestamp;P1;durP1;ratioP1;P2;durP2;ratioP2
73869;SDS011;64924;42.140;24.762;2023-10-31T00:01:10;17.67;;;7.65;;
73869;SDS011;64924;42.140;24.762;2023-10-31T00:03:36;20.88;;;9.88;;
73869;SDS011;64924;42.140;24.762;2023-10-31T00:06:01;22.38;;;9.18;;
73869;SDS011;64924;42.140;24.762;2023-10-31T00:08:27;19.70;;;9.23;;
73869;SDS011;64924;42.140;24.762;2023-10-31T00:10:52;19.08;;;8.90;;
73869;SDS011;64924;42.140;24.762;2023-10-31T00:13:18;15.15;;;8.48;;
73869;SDS011;64924;42.140;24.762;2023-10-31T00:15:43;14.65;;;8.02;;
73869;SDS011;64924;42.140;24.762;2023-10-31T00:18:09;19.00;;;7.57;;
73869;SDS011;64924;42.140;24.762;2023-10-31T00:20:34;18.05;;;7.70;;
73869;SDS011;64924;42.140;24.762;2023-10-31T00:23:00;20.15;;;8.10;;
73869;SDS011;64924;42.140;24.762;2023-10-31T00:25:25;17.63;;;8.43;;
73869;SDS011;64924;42.140;24.762;2023-10-31T00:27:51;18.00;;;8.77;;
73869;SDS011;64924;42.140;24.762;2023-10-31T00:30:16;15.43;;;7.85;;
73869;SDS011;64924;42.140;24.762;2023-10-31T00:32:42;14.68;;;8.38;;
73869;SDS011;64924;42.140;24.762;2023-10-31T00:35:07;19.00;;;8.77;;
73869;SDS011;64924;42.140;24.762;2023-10-31T00:37:33;20.38;;;9.32;;
73869;SDS011;64924;42.140;24.762;2023-10-31T00:39:58;18.73;;;8.13;;
73869;SDS011;64924;42.140;24.762;2023-10-31T00:42:24;14.70;;;8.15;;
73869;SDS011;64924;42.140;24.762;2023-10-31T00:44:49;15.07;;;8.75;;
73869;SDS011;64924;42.140;24.762;2023-10-31T00:47:15;18.58;;;7.78;;
73869;SDS011;64924;42.140;24.762;2023-10-31T00:49:40;17.98;;;8.05;;
73869;SDS011;64924;42.140;24.762;2023-10-31T00:52:06;19.00;;;8.40;;
73869;SDS011;64924;42.140;24.762;2023-10-31T00:54:32;14.45;;;7.55;;
73869;SDS011;64924;42.140;24.762;2023-10-31T00:56:57;16.20;;;7.88;;
73869;SDS011;64924;42.140;24.762;2023-10-31T00:59:22;11.98;;;6.95;;
73869;SDS011;64924;42.140;24.762;2023-10-31T01:01:49;14.00;;;7.53;;
73869;SDS011;64924;42.140;24.762;2023-10-31T01:04:14;16.42;;;6.85;;
73869;SDS011;64924;42.140;24.762;2023-10-31T01:06:43;14.80;;;7.88;;
73869;SDS011;64924;42.140;24.762;2023-10-31T01:09:09;15.45;;;7.20;;
73869;SDS011;64924;42.140;24.762;2023-10-31T01:11:35;13.43;;;6.65;;
73869;SDS011;64924;42.140;24.762;2023-10-31T01:14:01;12.10;;;6.80;;
73869;SDS011;64924;42.140;24.762;2023-10-31T01:16:26;13.50;;;7.00;;
73869;SDS011;64924;42.140;24.762;2023-10-31T01:18:52;15.88;;;7.35;;
73869;SDS011;64924;42.140;24.762;2023-10-31T01:21:17;16.05;;;7.57;;
73869;SDS011;64924;42.140;24.762;2023-10-31T01:23:42;14.57;;;7.57;;
73869;SDS011;64924;42.140;24.762;2023-10-31T01:26:08;10.85;;;7.30;;
73869;SDS011;64924;42.140;24.762;2023-10-31T01:28:34;12.75;;;7.03;;
73869;SDS011;64924;42.140;24.762;2023-10-31T01:30:59;18.83;;;7.68;;
73869;SDS011;64924;42.140;24.762;2023-10-31T01:33:25;13.80;;;7.63;;
73869;SDS011;64924;42.140;24.762;2023-10-31T01:35:50;16.27;;;7.88;;
73869;SDS011;64924;42.140;24.762;2023-10-31T01:38:16;23.20;;;7.63;;
73869;SDS011;64924;42.140;24.762;2023-10-31T01:40:41;17.33;;;7.25;;
73869;SDS011;64924;42.140;24.762;2023-10-31T01:43:07;15.95;;;8.43;;
73869;SDS011;64924;42.140;24.762;2023-10-31T01:45:33;13.57;;;7.55;;
73869;SDS011;64924;42.140;24.762;2023-10-31T01:47:58;18.15;;;7.95;;
73869;SDS011;64924;42.140;24.762;2023-10-31T01:50:24;19.15;;;7.72;;
73869;SDS011;64924;42.140;24.762;2023-10-31T01:52:50;18.25;;;8.00;;
73869;SDS011;64924;42.140;24.762;2023-10-31T01:55:17;14.57;;;7.60;;
73869;SDS011;64924;42.140;24.762;2023-10-31T01:57:44;13.73;;;8.65;;
73869;SDS011;64924;42.140;24.762;2023-10-31T02:00:12;16.10;;;8.50;;
73869;SDS011;64924;42.140;24.762;2023-10-31T02:02:40;13.20;;;7.72;;
73869;SDS011;64924;42.140;24.762;2023-10-31T02:07:34;14.82;;;8.07;;
73869;SDS011;64924;42.140;24.762;2023-10-31T02:10:00;20.30;;;8.13;;
73869;SDS011;64924;42.140;24.762;2023-10-31T02:12:32;15.52;;;8.00;;
73869;SDS011;64924;42.140;24.762;2023-10-31T02:14:59;20.83;;;9.52;;
73869;SDS011;64924;42.140;24.762;2023-10-31T02:17:24;19.15;;;9.27;;
73869;SDS011;64924;42.140;24.762;2023-10-31T02:19:49;17.65;;;7.97;;
73869;SDS011;64924;42.140;24.762;2023-10-31T02:22:15;19.75;;;8.98;;
73869;SDS011;64924;42.140;24.762;2023-10-31T02:24:40;17.65;;;8.57;;
73869;SDS011;64924;42.140;24.762;2023-10-31T02:27:06;16.80;;;7.68;;
73869;SDS011;64924;42.140;24.762;2023-10-31T02:29:31;19.15;;;9.00;;
73869;SDS011;64924;42.140;24.762;2023-10-31T02:31:57;19.10;;;10.05;;
73869;SDS011;64924;42.140;24.762;2023-10-31T02:34:22;15.23;;;8.13;;
73869;SDS011;64924;42.140;24.762;2023-10-31T02:36:47;13.70;;;9.05;;
73869;SDS011;64924;42.140;24.762;2023-10-31T02:39:13;19.20;;;9.15;;
73869;SDS011;64924;42.140;24.762;2023-10-31T02:41:39;13.75;;;7.82;;
73869;SDS011;64924;42.140;24.762;2023-10-31T02:44:04;11.90;;;7.88;;
73869;SDS011;64924;42.140;24.762;2023-10-31T02:46:30;19.05;;;9.02;;
73869;SDS011;64924;42.140;24.762;2023-10-31T02:48:55;16.95;;;9.02;;
73869;SDS011;64924;42.140;24.762;2023-10-31T02:51:21;16.67;;;8.80;;
73869;SDS011;64924;42.140;24.762;2023-10-31T02:53:46;14.32;;;9.07;;
73869;SDS011;64924;42.140;24.762;2023-10-31T02:56:12;17.90;;;8.75;;
73869;SDS011;64924;42.140;24.762;2023-10-31T02:58:37;18.23;;;9.13;;
73869;SDS011;64924;42.140;24.762;2023-10-31T03:01:03;18.65;;;8.00;;
73869;SDS011;64924;42.140;24.762;2023-10-31T03:03:28;13.95;;;7.95;;
73869;SDS011;64924;42.140;24.762;2023-10-31T03:05:54;16.02;;;7.85;;
73869;SDS011;64924;42.140;24.762;2023-10-31T03:08:20;16.63;;;8.98;;
73869;SDS011;64924;42.140;24.762;2023-10-31T03:10:47;23.15;;;9.27;;
73869;SDS011;64924;42.140;24.762;2023-10-31T03:13:15;13.60;;;8.23;;
73869;SDS011;64924;42.140;24.762;2023-10-31T03:15:41;15.23;;;9.13;;
73869;SDS011;64924;42.140;24.762;2023-10-31T03:18:08;16.48;;;8.73;;
73869;SDS011;64924;42.140;24.762;2023-10-31T03:20:33;16.63;;;8.48;;
73869;SDS011;64924;42.140;24.762;2023-10-31T03:22:59;18.85;;;8.50;;
73869;SDS011;64924;42.140;24.762;2023-10-31T03:25:24;19.90;;;8.57;;
73869;SDS011;64924;42.140;24.762;2023-10-31T03:27:50;15.15;;;8.80;;
73869;SDS011;64924;42.140;24.762;2023-10-31T03:30:15;18.75;;;8.15;;
73869;SDS011;64924;42.140;24.762;2023-10-31T03:32:40;16.85;;;8.77;;
73869;SDS011;64924;42.140;24.762;2023-10-31T03:35:06;15.20;;;8.30;;
73869;SDS011;64924;42.140;24.762;2023-10-31T03:37:32;14.43;;;9.10;;
73869;SDS011;64924;42.140;24.762;2023-10-31T03:39:57;21.17;;;8.90;;
73869;SDS011;64924;42.140;24.762;2023-10-31T03:42:23;16.20;;;9.50;;
73869;SDS011;64924;42.140;24.762;2023-10-31T03:44:48;19.75;;;9.50;;
73869;SDS011;64924;42.140;24.762;2023-10-31T03:47:13;17.40;;;9.10;;
73869;SDS011;64924;42.140;24.762;2023-10-31T03:49:39;19.63;;;8.80;;
73869;SDS011;64924;42.140;24.762;2023-10-31T03:52:05;23.92;;;9.63;;
73869;SDS011;64924;42.140;24.762;2023-10-31T03:54:32;17.25;;;9.68;;
73869;SDS011;64924;42.140;24.762;2023-10-31T03:56:57;19.80;;;9.77;;
73869;SDS011;64924;42.140;24.762;2023-10-31T03:59:23;16.48;;;9.70;;
73869;SDS011;64924;42.140;24.762;2023-10-31T04:01:48;16.95;;;8.73;;
73869;SDS011;64924;42.140;24.762;2023-10-31T04:04:14;18.00;;;9.13;;
73869;SDS011;64924;42.140;24.762;2023-10-31T04:06:39;17.17;;;9.32;;
73869;SDS011;64924;42.140;24.762;2023-10-31T04:09:06;17.20;;;9.15;;
73869;SDS011;64924;42.140;24.762;2023-10-31T04:11:31;14.02;;;9.35;;
73869;SDS011;64924;42.140;24.762;2023-10-31T04:13:57;18.73;;;9.05;;
73869;SDS011;64924;42.140;24.762;2023-10-31T04:16:22;15.23;;;8.73;;
73869;SDS011;64924;42.140;24.762;2023-10-31T04:18:48;15.65;;;8.73;;
73869;SDS011;64924;42.140;24.762;2023-10-31T04:21:13;13.93;;;8.55;;
73869;SDS011;64924;42.140;24.762;2023-10-31T04:23:39;15.48;;;9.27;;
73869;SDS011;64924;42.140;24.762;2023-10-31T04:26:05;18.67;;;9.68;;
73869;SDS011;64924;42.140;24.762;2023-10-31T04:28:30;19.52;;;9.98;;
73869;SDS011;64924;42.140;24.762;2023-10-31T04:30:56;15.52;;;9.88;;
73869;SDS011;64924;42.140;24.762;2023-10-31T04:33:21;21.60;;;10.40;;
73869;SDS011;64924;42.140;24.762;2023-10-31T04:35:47;16.67;;;10.30;;
73869;SDS011;64924;42.140;24.762;2023-10-31T04:38:12;16.77;;;9.93;;
73869;SDS011;64924;42.140;24.762;2023-10-31T04:40:38;17.20;;;9.80;;
73869;SDS011;64924;42.140;24.762;2023-10-31T04:43:03;21.98;;;10.88;;
73869;SDS011;64924;42.140;24.762;2023-10-31T04:45:29;22.02;;;10.40;;
73869;SDS011;64924;42.140;24.762;2023-10-31T04:47:54;17.92;;;9.65;;
73869;SDS011;64924;42.140;24.762;2023-10-31T04:50:19;17.42;;;9.90;;
73869;SDS011;64924;42.140;24.762;2023-10-31T04:52:45;20.65;;;10.05;;
73869;SDS011;64924;42.140;24.762;2023-10-31T04:55:10;23.17;;;10.18;;
73869;SDS011;64924;42.140;24.762;2023-10-31T04:57:36;16.08;;;9.98;;
73869;SDS011;64924;42.140;24.762;2023-10-31T05:00:01;20.13;;;11.10;;
73869;SDS011;64924;42.140;24.762;2023-10-31T05:02:30;18.13;;;9.35;;
73869;SDS011;64924;42.140;24.762;2023-10-31T05:04:56;20.27;;;9.50;;
73869;SDS011;64924;42.140;24.762;2023-10-31T05:07:23;20.20;;;9.80;;
73869;SDS011;64924;42.140;24.762;2023-10-31T05:09:49;19.83;;;10.80;;
73869;SDS011;64924;42.140;24.762;2023-10-31T05:12:14;22.50;;;10.82;;
73869;SDS011;64924;42.140;24.762;2023-10-31T05:14:40;16.63;;;9.43;;
73869;SDS011;64924;42.140;24.762;2023-10-31T05:17:05;21.17;;;10.43;;
73869;SDS011;64924;42.140;24.762;2023-10-31T05:19:31;19.80;;;11.07;;
73869;SDS011;64924;42.140;24.762;2023-10-31T05:21:56;20.85;;;9.52;;
73869;SDS011;64924;42.140;24.762;2023-10-31T05:24:22;16.70;;;9.20;;
73869;SDS011;64924;42.140;24.762;2023-10-31T05:26:47;19.60;;;9.70;;
73869;SDS011;64924;42.140;24.762;2023-10-31T05:29:13;19.08;;;9.57;;
73869;SDS011;64924;42.140;24.762;2023-10-31T05:31:38;14.77;;;8.50;;
73869;SDS011;64924;42.140;24.762;2023-10-31T05:34:04;17.50;;;10.23;;
73869;SDS011;64924;42.140;24.762;2023-10-31T05:36:29;19.63;;;8.77;;
73869;SDS011;64924;42.140;24.762;2023-10-31T05:38:55;19.77;;;9.65;;
73869;SDS011;64924;42.140;24.762;2023-10-31T05:41:21;16.85;;;9.52;;
73869;SDS011;64924;42.140;24.762;2023-10-31T05:43:46;17.38;;;9.25;;
73869;SDS011;64924;42.140;24.762;2023-10-31T05:46:12;20.23;;;9.00;;
73869;SDS011;64924;42.140;24.762;2023-10-31T05:48:39;18.48;;;9.93;;
73869;SDS011;64924;42.140;24.762;2023-10-31T05:51:12;22.48;;;9.88;;
73869;SDS011;64924;42.140;24.762;2023-10-31T05:53:39;23.63;;;10.02;;
73869;SDS011;64924;42.140;24.762;2023-10-31T05:56:06;24.98;;;12.23;;
73869;SDS011;64924;42.140;24.762;2023-10-31T05:58:32;19.50;;;11.23;;
73869;SDS011;64924;42.140;24.762;2023-10-31T06:00:58;20.83;;;9.43;;
73869;SDS011;64924;42.140;24.762;2023-10-31T06:03:24;19.83;;;9.02;;
73869;SDS011;64924;42.140;24.762;2023-10-31T06:05:49;14.80;;;9.15;;
73869;SDS011;64924;42.140;24.762;2023-10-31T06:08:14;16.58;;;8.23;;
73869;SDS011;64924;42.140;24.762;2023-10-31T06:10:40;16.63;;;8.20;;
73869;SDS011;64924;42.140;24.762;2023-10-31T06:13:05;16.77;;;7.32;;
73869;SDS011;64924;42.140;24.762;2023-10-31T06:15:31;17.45;;;7.85;;
73869;SDS011;64924;42.140;24.762;2023-10-31T06:17:57;21.70;;;7.85;;
73869;SDS011;64924;42.140;24.762;2023-10-31T06:20:23;18.85;;;8.65;;
73869;SDS011;64924;42.140;24.762;2023-10-31T06:22:48;12.73;;;8.10;;
73869;SDS011;64924;42.140;24.762;2023-10-31T06:25:14;14.85;;;7.72;;
73869;SDS011;64924;42.140;24.762;2023-10-31T06:27:39;14.68;;;7.72;;
73869;SDS011;64924;42.140;24.762;2023-10-31T06:30:05;19.23;;;8.27;;
73869;SDS011;64924;42.140;24.762;2023-10-31T06:32:31;13.90;;;8.15;;
73869;SDS011;64924;42.140;24.762;2023-10-31T06:34:56;18.83;;;8.63;;
73869;SDS011;64924;42.140;24.762;2023-10-31T06:37:22;29.13;;;17.70;;
73869;SDS011;64924;42.140;24.762;2023-10-31T06:39:47;16.15;;;8.85;;
73869;SDS011;64924;42.140;24.762;2023-10-31T06:42:13;17.73;;;9.73;;
73869;SDS011;64924;42.140;24.762;2023-10-31T06:44:38;12.93;;;7.18;;
73869;SDS011;64924;42.140;24.762;2023-10-31T06:47:04;15.38;;;7.57;;
73869;SDS011;64924;42.140;24.762;2023-10-31T06:49:29;13.93;;;7.68;;
73869;SDS011;64924;42.140;24.762;2023-10-31T06:51:55;17.70;;;8.88;;
73869;SDS011;64924;42.140;24.762;2023-10-31T06:54:20;13.25;;;8.23;;
73869;SDS011;64924;42.140;24.762;2023-10-31T06:56:47;20.13;;;8.98;;
73869;SDS011;64924;42.140;24.762;2023-10-31T06:59:12;14.27;;;7.75;;
73869;SDS011;64924;42.140;24.762;2023-10-31T07:01:38;16.35;;;7.47;;
73869;SDS011;64924;42.140;24.762;2023-10-31T07:04:03;15.20;;;7.85;;
73869;SDS011;64924;42.140;24.762;2023-10-31T07:06:29;20.63;;;8.45;;
73869;SDS011;64924;42.140;24.762;2023-10-31T07:08:54;23.45;;;16.27;;
73869;SDS011;64924;42.140;24.762;2023-10-31T07:11:20;17.90;;;7.95;;
73869;SDS011;64924;42.140;24.762;2023-10-31T07:13:45;17.05;;;8.40;;
73869;SDS011;64924;42.140;24.762;2023-10-31T07:16:11;14.52;;;7.90;;
73869;SDS011;64924;42.140;24.762;2023-10-31T07:18:36;20.02;;;8.10;;
73869;SDS011;64924;42.140;24.762;2023-10-31T07:21:02;15.43;;;7.40;;
73869;SDS011;64924;42.140;24.762;2023-10-31T07:23:28;18.35;;;8.38;;
73869;SDS011;64924;42.140;24.762;2023-10-31T07:25:53;19.50;;;8.07;;
73869;SDS011;64924;42.140;24.762;2023-10-31T07:28:19;16.30;;;7.90;;
73869;SDS011;64924;42.140;24.762;2023-10-31T07:30:44;15.65;;;7.90;;
73869;SDS011;64924;42.140;24.762;2023-10-31T07:33:10;21.88;;;8.32;;
73869;SDS011;64924;42.140;24.762;2023-10-31T07:35:35;17.92;;;8.70;;
73869;SDS011;64924;42.140;24.762;2023-10-31T07:38:01;10.85;;;7.07;;
73869;SDS011;64924;42.140;24.762;2023-10-31T07:40:26;14.02;;;7.65;;
73869;SDS011;64924;42.140;24.762;2023-10-31T07:42:52;18.63;;;7.25;;
73869;SDS011;64924;42.140;24.762;2023-10-31T07:45:17;18.45;;;8.18;;
73869;SDS011;64924;42.140;24.762;2023-10-31T07:47:43;17.48;;;7.28;;
73869;SDS011;64924;42.140;24.762;2023-10-31T07:50:08;13.55;;;7.32;;
73869;SDS011;64924;42.140;24.762;2023-10-31T07:52:34;16.65;;;7.32;;
73869;SDS011;64924;42.140;24.762;2023-10-31T07:55:00;16.83;;;7.53;;
73869;SDS011;64924;42.140;24.762;2023-10-31T07:57:25;23.02;;;8.07;;
73869;SDS011;64924;42.140;24.762;2023-10-31T07:59:51;26.77;;;8.25;;
73869;SDS011;64924;42.140;24.762;2023-10-31T08:02:16;13.63;;;7.30;;
73869;SDS011;64924;42.140;24.762;2023-10-31T08:04:41;15.85;;;7.18;;
73869;SDS011;64924;42.140;24.762;2023-10-31T08:07:07;19.65;;;7.53;;
73869;SDS011;64924;42.140;24.762;2023-10-31T08:09:32;13.18;;;7.10;;
73869;SDS011;64924;42.140;24.762;2023-10-31T08:11:58;14.40;;;7.00;;
73869;SDS011;64924;42.140;24.762;2023-10-31T08:14:23;14.35;;;7.13;;
73869;SDS011;64924;42.140;24.762;2023-10-31T08:16:49;18.30;;;8.10;;
73869;SDS011;64924;42.140;24.762;2023-10-31T08:19:14;13.82;;;7.10;;
73869;SDS011;64924;42.140;24.762;2023-10-31T08:21:40;12.27;;;6.70;;
73869;SDS011;64924;42.140;24.762;2023-10-31T08:24:06;16.30;;;7.50;;
73869;SDS011;64924;42.140;24.762;2023-10-31T08:26:32;12.95;;;7.38;;
73869;SDS011;64924;42.140;24.762;2023-10-31T08:28:57;15.15;;;7.40;;
73869;SDS011;64924;42.140;24.762;2023-10-31T08:31:23;13.02;;;6.40;;
73869;SDS011;64924;42.140;24.762;2023-10-31T08:33:49;12.40;;;6.40;;
73869;SDS011;64924;42.140;24.762;2023-10-31T08:36:14;15.57;;;6.72;;
73869;SDS011;64924;42.140;24.762;2023-10-31T08:38:40;14.23;;;7.43;;
73869;SDS011;64924;42.140;24.762;2023-10-31T08:41:05;14.93;;;7.03;;
73869;SDS011;64924;42.140;24.762;2023-10-31T08:43:31;15.07;;;5.90;;
73869;SDS011;64924;42.140;24.762;2023-10-31T08:45:56;14.95;;;5.45;;
73869;SDS011;64924;42.140;24.762;2023-10-31T08:48:22;16.77;;;8.02;;
73869;SDS011;64924;42.140;24.762;2023-10-31T08:50:48;13.55;;;5.90;;
73869;SDS011;64924;42.140;24.762;2023-10-31T08:53:13;17.60;;;5.65;;
73869;SDS011;64924;42.140;24.762;2023-10-31T08:55:38;14.57;;;7.68;;
73869;SDS011;64924;42.140;24.762;2023-10-31T08:58:05;13.25;;;7.82;;
73869;SDS011;64924;42.140;24.762;2023-10-31T09:00:30;17.88;;;7.60;;
73869;SDS011;64924;42.140;24.762;2023-10-31T09:02:56;19.95;;;6.93;;
73869;SDS011;64924;42.140;24.762;2023-10-31T09:05:21;20.30;;;7.28;;
73869;SDS011;64924;42.140;24.762;2023-10-31T09:07:46;14.23;;;6.57;;
73869;SDS011;64924;42.140;24.762;2023-10-31T09:10:12;19.52;;;7.00;;
73869;SDS011;64924;42.140;24.762;2023-10-31T09:12:38;14.38;;;6.15;;
73869;SDS011;64924;42.140;24.762;2023-10-31T09:15:03;13.93;;;6.30;;
73869;SDS011;64924;42.140;24.762;2023-10-31T09:17:29;19.67;;;6.43;;
73869;SDS011;64924;42.140;24.762;2023-10-31T09:19:55;15.30;;;6.47;;
73869;SDS011;64924;42.140;24.762;2023-10-31T09:22:20;13.38;;;6.10;;
73869;SDS011;64924;42.140;24.762;2023-10-31T09:24:46;12.63;;;6.25;;
73869;SDS011;64924;42.140;24.762;2023-10-31T09:27:11;15.48;;;5.90;;
73869;SDS011;64924;42.140;24.762;2023-10-31T09:29:37;11.95;;;5.53;;
73869;SDS011;64924;42.140;24.762;2023-10-31T09:32:03;12.18;;;6.50;;
73869;SDS011;64924;42.140;24.762;2023-10-31T09:34:30;15.80;;;7.22;;
73869;SDS011;64924;42.140;24.762;2023-10-31T09:36:56;10.90;;;6.53;;
73869;SDS011;64924;42.140;24.762;2023-10-31T09:39:21;15.27;;;7.57;;
73869;SDS011;64924;42.140;24.762;2023-10-31T09:41:48;13.70;;;6.57;;
73869;SDS011;64924;42.140;24.762;2023-10-31T09:44:13;17.25;;;6.63;;
73869;SDS011;64924;42.140;24.762;2023-10-31T09:46:39;13.45;;;6.70;;
73869;SDS011;64924;42.140;24.762;2023-10-31T09:49:05;14.82;;;6.57;;
73869;SDS011;64924;42.140;24.762;2023-10-31T09:51:32;14.63;;;6.70;;
73869;SDS011;64924;42.140;24.762;2023-10-31T09:53:57;17.42;;;6.82;;
73869;SDS011;64924;42.140;24.762;2023-10-31T09:56:26;13.55;;;6.95;;
73869;SDS011;64924;42.140;24.762;2023-10-31T09:58:59;17.88;;;7.32;;
73869;SDS011;64924;42.140;24.762;2023-10-31T10:01:25;16.23;;;6.07;;
73869;SDS011;64924;42.140;24.762;2023-10-31T10:03:51;12.70;;;6.63;;
73869;SDS011;64924;42.140;24.762;2023-10-31T10:06:17;14.43;;;6.35;;
73869;SDS011;64924;42.140;24.762;2023-10-31T10:08:46;14.23;;;5.20;;
73869;SDS011;64924;42.140;24.762;2023-10-31T10:11:12;13.07;;;5.53;;
73869;SDS011;64924;42.140;24.762;2023-10-31T10:13:37;14.77;;;5.75;;
73869;SDS011;64924;42.140;24.762;2023-10-31T10:16:03;12.38;;;5.07;;
73869;SDS011;64924;42.140;24.762;2023-10-31T10:18:35;13.93;;;5.93;;
73869;SDS011;64924;42.140;24.762;2023-10-31T10:21:05;13.75;;;4.72;;
73869;SDS011;64924;42.140;24.762;2023-10-31T10:23:32;11.25;;;5.40;;
73869;SDS011;64924;42.140;24.762;2023-10-31T10:25:59;14.55;;;5.85;;
73869;SDS011;64924;42.140;24.762;2023-10-31T10:28:25;16.65;;;4.95;;
73869;SDS011;64924;42.140;24.762;2023-10-31T10:30:52;12.70;;;5.30;;
73869;SDS011;64924;42.140;24.762;2023-10-31T10:33:19;14.90;;;5.15;;
73869;SDS011;64924;42.140;24.762;2023-10-31T10:35:45;12.40;;;5.22;;
73869;SDS011;64924;42.140;24.762;2023-10-31T10:38:11;9.20;;;4.82;;
73869;SDS011;64924;42.140;24.762;2023-10-31T10:40:40;14.77;;;5.38;;
73869;SDS011;64924;42.140;24.762;2023-10-31T10:43:10;14.20;;;4.93;;
73869;SDS011;64924;42.140;24.762;2023-10-31T10:45:40;16.98;;;5.82;;
73869;SDS011;64924;42.140;24.762;2023-10-31T10:48:10;15.85;;;5.45;;
73869;SDS011;64924;42.140;24.762;2023-10-31T10:50:37;14.85;;;5.10;;
73869;SDS011;64924;42.140;24.762;2023-10-31T10:53:10;13.00;;;4.57;;
73869;SDS011;64924;42.140;24.762;2023-10-31T10:55:39;14.40;;;5.40;;
73869;SDS011;64924;42.140;24.762;2023-10-31T10:58:13;11.82;;;4.75;;
73869;SDS011;64924;42.140;24.762;2023-10-31T11:01:04;13.73;;;4.57;;
73869;SDS011;64924;42.140;24.762;2023-10-31T11:03:30;13.90;;;5.05;;
73869;SDS011;64924;42.140;24.762;2023-10-31T11:05:57;11.93;;;4.90;;
73869;SDS011;64924;42.140;24.762;2023-10-31T11:08:23;14.65;;;5.18;;
73869;SDS011;64924;42.140;24.762;2023-10-31T11:10:50;8.32;;;4.40;;
73869;SDS011;64924;42.140;24.762;2023-10-31T11:13:18;10.25;;;5.18;;
73869;SDS011;64924;42.140;24.762;2023-10-31T11:15:44;25.45;;;9.82;;
73869;SDS011;64924;42.140;24.762;2023-10-31T11:18:11;22.58;;;7.40;;
73869;SDS011;64924;42.140;24.762;2023-10-31T11:20:37;11.95;;;5.55;;
73869;SDS011;64924;42.140;24.762;2023-10-31T11:23:04;15.98;;;4.78;;
73869;SDS011;64924;42.140;24.762;2023-10-31T11:25:31;10.20;;;4.97;;
73869;SDS011;64924;42.140;24.762;2023-10-31T11:28:10;10.57;;;4.60;;
73869;SDS011;64924;42.140;24.762;2023-10-31T11:30:39;10.15;;;4.63;;
73869;SDS011;64924;42.140;24.762;2023-10-31T11:33:05;13.77;;;4.88;;
73869;SDS011;64924;42.140;24.762;2023-10-31T11:35:32;10.45;;;4.15;;
73869;SDS011;64924;42.140;24.762;2023-10-31T11:38:02;12.25;;;4.57;;
73869;SDS011;64924;42.140;24.762;2023-10-31T11:40:28;12.10;;;4.90;;
73869;SDS011;64924;42.140;24.762;2023-10-31T11:42:57;10.65;;;3.83;;
73869;SDS011;64924;42.140;24.762;2023-10-31T11:45:27;13.10;;;4.25;;
73869;SDS011;64924;42.140;24.762;2023-10-31T11:48:03;13.02;;;4.55;;
73869;SDS011;64924;42.140;24.762;2023-10-31T11:50:30;13.35;;;5.10;;
73869;SDS011;64924;42.140;24.762;2023-10-31T11:52:59;13.80;;;4.45;;
73869;SDS011;64924;42.140;24.762;2023-10-31T11:55:26;13.80;;;4.60;;
73869;SDS011;64924;42.140;24.762;2023-10-31T11:57:52;11.30;;;5.40;;
73869;SDS011;64924;42.140;24.762;2023-10-31T12:00:21;11.98;;;4.75;;
73869;SDS011;64924;42.140;24.762;2023-10-31T12:05:24;17.05;;;5.45;;
73869;SDS011;64924;42.140;24.762;2023-10-31T12:07:49;19.40;;;5.13;;
73869;SDS011;64924;42.140;24.762;2023-10-31T12:10:21;9.18;;;5.55;;
73869;SDS011;64924;42.140;24.762;2023-10-31T12:12:48;10.50;;;5.50;;
73869;SDS011;64924;42.140;24.762;2023-10-31T12:15:14;16.50;;;8.10;;
73869;SDS011;64924;42.140;24.762;2023-10-31T12:17:39;18.08;;;6.75;;
73869;SDS011;64924;42.140;24.762;2023-10-31T12:20:05;16.55;;;6.93;;
73869;SDS011;64924;42.140;24.762;2023-10-31T12:22:33;22.83;;;7.43;;
73869;SDS011;64924;42.140;24.762;2023-10-31T12:25:05;16.08;;;7.55;;
73869;SDS011;64924;42.140;24.762;2023-10-31T12:27:42;13.40;;;6.57;;
73869;SDS011;64924;42.140;24.762;2023-10-31T12:30:12;14.77;;;7.90;;
73869;SDS011;64924;42.140;24.762;2023-10-31T12:32:42;15.82;;;6.85;;
73869;SDS011;64924;42.140;24.762;2023-10-31T12:35:13;16.00;;;7.60;;
73869;SDS011;64924;42.140;24.762;2023-10-31T12:37:43;18.20;;;8.00;;
73869;SDS011;64924;42.140;24.762;2023-10-31T12:40:11;21.42;;;10.85;;
73869;SDS011;64924;42.140;24.762;2023-10-31T12:42:39;23.10;;;10.10;;
73869;SDS011;64924;42.140;24.762;2023-10-31T12:45:05;20.25;;;7.88;;
73869;SDS011;64924;42.140;24.762;2023-10-31T12:47:31;18.48;;;7.85;;
73869;SDS011;64924;42.140;24.762;2023-10-31T12:50:06;19.63;;;8.57;;
73869;SDS011;64924;42.140;24.762;2023-10-31T12:55:17;13.13;;;5.22;;
73869;SDS011;64924;42.140;24.762;2023-10-31T12:57:44;17.45;;;5.00;;
73869;SDS011;64924;42.140;24.762;2023-10-31T13:00:14;11.93;;;5.05;;
73869;SDS011;64924;42.140;24.762;2023-10-31T13:02:41;11.05;;;5.40;;
73869;SDS011;64924;42.140;24.762;2023-10-31T13:05:08;11.43;;;4.97;;
73869;SDS011;64924;42.140;24.762;2023-10-31T13:07:34;11.45;;;5.63;;
73869;SDS011;64924;42.140;24.762;2023-10-31T13:10:00;19.00;;;6.57;;
73869;SDS011;64924;42.140;24.762;2023-10-31T13:12:26;16.95;;;7.25;;
73869;SDS011;64924;42.140;24.762;2023-10-31T13:14:53;17.48;;;6.82;;
73869;SDS011;64924;42.140;24.762;2023-10-31T13:17:18;23.15;;;8.40;;
73869;SDS011;64924;42.140;24.762;2023-10-31T13:19:44;19.63;;;7.90;;
73869;SDS011;64924;42.140;24.762;2023-10-31T13:22:09;16.88;;;8.70;;
73869;SDS011;64924;42.140;24.762;2023-10-31T13:24:35;14.48;;;9.20;;
73869;SDS011;64924;42.140;24.762;2023-10-31T13:27:00;23.80;;;10.18;;
73869;SDS011;64924;42.140;24.762;2023-10-31T13:29:28;19.27;;;9.80;;
73869;SDS011;64924;42.140;24.762;2023-10-31T13:31:53;16.10;;;8.93;;
73869;SDS011;64924;42.140;24.762;2023-10-31T13:34:19;16.38;;;8.80;;
73869;SDS011;64924;42.140;24.762;2023-10-31T13:36:44;17.27;;;8.35;;
73869;SDS011;64924;42.140;24.762;2023-10-31T13:39:10;15.85;;;7.70;;
73869;SDS011;64924;42.140;24.762;2023-10-31T13:41:35;15.43;;;6.93;;
73869;SDS011;64924;42.140;24.762;2023-10-31T13:44:01;16.08;;;7.20;;
73869;SDS011;64924;42.140;24.762;2023-10-31T13:46:28;13.50;;;6.53;;
73869;SDS011;64924;42.140;24.762;2023-10-31T13:48:54;16.67;;;6.40;;
73869;SDS011;64924;42.140;24.762;2023-10-31T13:51:19;14.70;;;7.03;;
73869;SDS011;64924;42.140;24.762;2023-10-31T13:53:45;13.30;;;6.22;;
73869;SDS011;64924;42.140;24.762;2023-10-31T13:56:11;18.15;;;6.03;;
73869;SDS011;64924;42.140;24.762;2023-10-31T13:58:36;15.95;;;6.38;;
73869;SDS011;64924;42.140;24.762;2023-10-31T14:01:01;13.27;;;5.68;;
73869;SDS011;64924;42.140;24.762;2023-10-31T14:03:27;14.48;;;5.80;;
73869;SDS011;64924;42.140;24.762;2023-10-31T14:05:53;15.63;;;6.50;;
73869;SDS011;64924;42.140;24.762;2023-10-31T14:08:18;11.15;;;5.70;;
73869;SDS011;64924;42.140;24.762;2023-10-31T14:10:44;9.60;;;5.30;;
73869;SDS011;64924;42.140;24.762;2023-10-31T14:13:11;13.30;;;5.45;;
73869;SDS011;64924;42.140;24.762;2023-10-31T14:15:37;16.98;;;5.60;;
73869;SDS011;64924;42.140;24.762;2023-10-31T14:18:03;10.77;;;5.80;;
73869;SDS011;64924;42.140;24.762;2023-10-31T14:20:29;9.45;;;5.72;;
73869;SDS011;64924;42.140;24.762;2023-10-31T14:22:55;12.18;;;6.45;;